sensor_id;sensor_type;location;lat;lon;timestamp;P1;durP1;ratioP1;P2;durP2;ratioP2
18933;SDS011;9599;53.706;10.384;2023-03-09T00:01:26;8.90;;;5.57;;
18933;SDS011;9599;53.706;10.384;2023-03-09T00:03:56;9.07;;;5.37;;
18933;SDS011;9599;53.706;10.384;2023-03-09T00:06:25;12.67;;;6.07;;
18933;SDS011;9599;53.706;10.384;2023-03-09T00:08:54;9.13;;;5.87;;
18933;SDS011;9599;53.706;10.384;2023-03-09T00:11:23;7.93;;;5.40;;
18933;SDS011;9599;53.706;10.384;2023-03-09T00:13:51;8.47;;;5.60;;
18933;SDS011;9599;53.706;10.384;2023-03-09T00:16:20;7.67;;;4.97;;
18933;SDS011;9599;53.706;10.384;2023-03-09T00:18:49;11.17;;;5.80;;
18933;SDS011;9599;53.706;10.384;2023-03-09T00:21:19;8.43;;;5.57;;
18933;SDS011;9599;53.706;10.384;2023-03-09T00:24:06;10.60;;;5.63;;
18933;SDS011;9599;53.706;10.384;2023-03-09T00:26:36;8.27;;;5.33;;
18933;SDS011;9599;53.706;10.384;2023-03-09T00:29:05;9.17;;;5.47;;
18933;SDS011;9599;53.706;10.384;2023-03-09T00:31:34;8.30;;;5.67;;
18933;SDS011;9599;53.706;10.384;2023-03-09T00:34:02;8.90;;;5.33;;
18933;SDS011;9599;53.706;10.384;2023-03-09T00:36:31;9.67;;;5.57;;
18933;SDS011;9599;53.706;10.384;2023-03-09T00:38:59;8.83;;;5.30;;
18933;SDS011;9599;53.706;10.384;2023-03-09T00:41:28;7.60;;;5.30;;
18933;SDS011;9599;53.706;10.384;2023-03-09T00:43:57;9.03;;;5.77;;
18933;SDS011;9599;53.706;10.384;2023-03-09T00:46:26;9.30;;;6.00;;
18933;SDS011;9599;53.706;10.384;2023-03-09T00:48:54;9.87;;;5.50;;
18933;SDS011;9599;53.706;10.384;2023-03-09T00:51:22;10.37;;;6.07;;
18933;SDS011;9599;53.706;10.384;2023-03-09T00:53:51;9.17;;;6.43;;
18933;SDS011;9599;53.706;10.384;2023-03-09T00:56:20;9.90;;;6.63;;
18933;SDS011;9599;53.706;10.384;2023-03-09T00:58:53;12.30;;;6.20;;
18933;SDS011;9599;53.706;10.384;2023-03-09T01:01:22;8.93;;;5.93;;
18933;SDS011;9599;53.706;10.384;2023-03-09T01:03:51;10.77;;;6.13;;
18933;SDS011;9599;53.706;10.384;2023-03-09T01:06:21;9.07;;;5.63;;
18933;SDS011;9599;53.706;10.384;2023-03-09T01:08:50;10.30;;;5.67;;
18933;SDS011;9599;53.706;10.384;2023-03-09T01:11:19;8.47;;;5.73;;
18933;SDS011;9599;53.706;10.384;2023-03-09T01:13:49;9.93;;;5.97;;
18933;SDS011;9599;53.706;10.384;2023-03-09T01:16:18;9.80;;;5.77;;
18933;SDS011;9599;53.706;10.384;2023-03-09T01:18:47;9.10;;;6.33;;
18933;SDS011;9599;53.706;10.384;2023-03-09T01:21:16;11.67;;;5.73;;
18933;SDS011;9599;53.706;10.384;2023-03-09T01:23:44;11.13;;;5.90;;
18933;SDS011;9599;53.706;10.384;2023-03-09T01:26:12;10.10;;;6.07;;
18933;SDS011;9599;53.706;10.384;2023-03-09T01:28:40;9.43;;;6.20;;
18933;SDS011;9599;53.706;10.384;2023-03-09T01:31:08;11.30;;;6.20;;
18933;SDS011;9599;53.706;10.384;2023-03-09T01:33:41;10.57;;;6.20;;
18933;SDS011;9599;53.706;10.384;2023-03-09T01:36:11;10.90;;;6.40;;
18933;SDS011;9599;53.706;10.384;2023-03-09T01:38:40;11.53;;;6.17;;
18933;SDS011;9599;53.706;10.384;2023-03-09T01:41:09;10.87;;;6.27;;
18933;SDS011;9599;53.706;10.384;2023-03-09T01:43:39;9.53;;;5.93;;
18933;SDS011;9599;53.706;10.384;2023-03-09T01:49:00;11.10;;;6.83;;
18933;SDS011;9599;53.706;10.384;2023-03-09T01:51:33;10.57;;;6.60;;
18933;SDS011;9599;53.706;10.384;2023-03-09T01:54:05;13.20;;;6.60;;
18933;SDS011;9599;53.706;10.384;2023-03-09T01:56:37;11.17;;;6.37;;
18933;SDS011;9599;53.706;10.384;2023-03-09T01:59:08;11.00;;;6.07;;
18933;SDS011;9599;53.706;10.384;2023-03-09T02:01:39;11.73;;;6.57;;
18933;SDS011;9599;53.706;10.384;2023-03-09T02:04:12;11.77;;;6.50;;
18933;SDS011;9599;53.706;10.384;2023-03-09T02:06:46;10.37;;;6.50;;
18933;SDS011;9599;53.706;10.384;2023-03-09T02:09:18;10.27;;;6.40;;
18933;SDS011;9599;53.706;10.384;2023-03-09T02:11:52;10.10;;;5.60;;
18933;SDS011;9599;53.706;10.384;2023-03-09T02:14:21;11.50;;;6.40;;
18933;SDS011;9599;53.706;10.384;2023-03-09T02:16:49;11.40;;;6.10;;
18933;SDS011;9599;53.706;10.384;2023-03-09T02:19:22;13.30;;;6.13;;
18933;SDS011;9599;53.706;10.384;2023-03-09T02:22:00;11.33;;;6.57;;
18933;SDS011;9599;53.706;10.384;2023-03-09T02:24:31;9.33;;;5.70;;
18933;SDS011;9599;53.706;10.384;2023-03-09T02:27:12;11.30;;;6.50;;
18933;SDS011;9599;53.706;10.384;2023-03-09T02:29:42;10.23;;;5.83;;
18933;SDS011;9599;53.706;10.384;2023-03-09T02:32:13;9.97;;;6.60;;
18933;SDS011;9599;53.706;10.384;2023-03-09T02:34:42;11.13;;;6.47;;
18933;SDS011;9599;53.706;10.384;2023-03-09T02:37:23;10.33;;;6.33;;
18933;SDS011;9599;53.706;10.384;2023-03-09T02:39:55;12.13;;;6.63;;
18933;SDS011;9599;53.706;10.384;2023-03-09T02:42:27;12.27;;;6.80;;
18933;SDS011;9599;53.706;10.384;2023-03-09T02:44:55;11.23;;;6.70;;
18933;SDS011;9599;53.706;10.384;2023-03-09T02:47:24;12.00;;;6.47;;
18933;SDS011;9599;53.706;10.384;2023-03-09T02:49:53;11.03;;;6.57;;
18933;SDS011;9599;53.706;10.384;2023-03-09T02:52:23;13.03;;;6.87;;
18933;SDS011;9599;53.706;10.384;2023-03-09T02:54:51;10.73;;;7.00;;
18933;SDS011;9599;53.706;10.384;2023-03-09T02:57:19;12.57;;;6.97;;
18933;SDS011;9599;53.706;10.384;2023-03-09T02:59:49;10.60;;;6.43;;
18933;SDS011;9599;53.706;10.384;2023-03-09T03:02:18;11.13;;;6.63;;
18933;SDS011;9599;53.706;10.384;2023-03-09T03:04:46;14.27;;;7.10;;
18933;SDS011;9599;53.706;10.384;2023-03-09T03:07:15;12.40;;;6.83;;
18933;SDS011;9599;53.706;10.384;2023-03-09T03:09:43;11.60;;;6.67;;
18933;SDS011;9599;53.706;10.384;2023-03-09T03:12:11;12.33;;;6.70;;
18933;SDS011;9599;53.706;10.384;2023-03-09T03:14:39;13.97;;;7.47;;
18933;SDS011;9599;53.706;10.384;2023-03-09T03:17:09;12.37;;;7.23;;
18933;SDS011;9599;53.706;10.384;2023-03-09T03:19:38;11.23;;;6.50;;
18933;SDS011;9599;53.706;10.384;2023-03-09T03:22:07;12.27;;;7.00;;
18933;SDS011;9599;53.706;10.384;2023-03-09T03:24:36;11.23;;;6.37;;
18933;SDS011;9599;53.706;10.384;2023-03-09T03:27:05;13.77;;;7.93;;
18933;SDS011;9599;53.706;10.384;2023-03-09T03:29:35;13.17;;;6.57;;
18933;SDS011;9599;53.706;10.384;2023-03-09T03:32:03;12.43;;;6.80;;
18933;SDS011;9599;53.706;10.384;2023-03-09T03:34:33;12.23;;;7.17;;
18933;SDS011;9599;53.706;10.384;2023-03-09T03:37:02;10.83;;;6.47;;
18933;SDS011;9599;53.706;10.384;2023-03-09T03:39:33;13.90;;;7.17;;
18933;SDS011;9599;53.706;10.384;2023-03-09T03:42:03;13.57;;;7.13;;
18933;SDS011;9599;53.706;10.384;2023-03-09T03:44:32;11.77;;;7.27;;
18933;SDS011;9599;53.706;10.384;2023-03-09T03:47:00;14.07;;;7.37;;
18933;SDS011;9599;53.706;10.384;2023-03-09T03:49:28;16.63;;;7.60;;
18933;SDS011;9599;53.706;10.384;2023-03-09T03:52:00;12.57;;;6.70;;
18933;SDS011;9599;53.706;10.384;2023-03-09T03:54:30;12.40;;;7.47;;
18933;SDS011;9599;53.706;10.384;2023-03-09T03:56:58;13.33;;;7.37;;
18933;SDS011;9599;53.706;10.384;2023-03-09T03:59:29;11.37;;;7.10;;
18933;SDS011;9599;53.706;10.384;2023-03-09T04:01:57;13.70;;;7.23;;
18933;SDS011;9599;53.706;10.384;2023-03-09T04:04:28;14.30;;;7.33;;
18933;SDS011;9599;53.706;10.384;2023-03-09T04:07:03;13.97;;;7.47;;
18933;SDS011;9599;53.706;10.384;2023-03-09T04:09:31;14.63;;;7.50;;
18933;SDS011;9599;53.706;10.384;2023-03-09T04:11:59;13.27;;;7.60;;
18933;SDS011;9599;53.706;10.384;2023-03-09T04:14:30;14.10;;;7.50;;
18933;SDS011;9599;53.706;10.384;2023-03-09T04:17:00;12.33;;;7.10;;
18933;SDS011;9599;53.706;10.384;2023-03-09T04:19:29;13.37;;;8.10;;
18933;SDS011;9599;53.706;10.384;2023-03-09T04:21:57;12.77;;;7.20;;
18933;SDS011;9599;53.706;10.384;2023-03-09T04:24:27;13.13;;;7.53;;
18933;SDS011;9599;53.706;10.384;2023-03-09T04:26:56;13.53;;;7.43;;
18933;SDS011;9599;53.706;10.384;2023-03-09T04:30:00;12.50;;;7.30;;
18933;SDS011;9599;53.706;10.384;2023-03-09T04:32:31;12.80;;;7.33;;
18933;SDS011;9599;53.706;10.384;2023-03-09T04:35:04;13.80;;;7.83;;
18933;SDS011;9599;53.706;10.384;2023-03-09T04:37:35;14.47;;;7.40;;
18933;SDS011;9599;53.706;10.384;2023-03-09T04:40:05;14.77;;;7.50;;
18933;SDS011;9599;53.706;10.384;2023-03-09T04:42:34;14.63;;;7.70;;
18933;SDS011;9599;53.706;10.384;2023-03-09T04:45:02;14.27;;;8.40;;
18933;SDS011;9599;53.706;10.384;2023-03-09T04:47:31;14.13;;;7.37;;
18933;SDS011;9599;53.706;10.384;2023-03-09T04:50:00;13.13;;;7.37;;
18933;SDS011;9599;53.706;10.384;2023-03-09T04:52:33;13.87;;;7.60;;
18933;SDS011;9599;53.706;10.384;2023-03-09T04:55:01;14.93;;;7.97;;
18933;SDS011;9599;53.706;10.384;2023-03-09T04:57:30;14.67;;;8.30;;
18933;SDS011;9599;53.706;10.384;2023-03-09T04:59:58;13.70;;;7.77;;
18933;SDS011;9599;53.706;10.384;2023-03-09T05:02:28;14.83;;;7.60;;
18933;SDS011;9599;53.706;10.384;2023-03-09T05:04:56;15.37;;;8.40;;
18933;SDS011;9599;53.706;10.384;2023-03-09T05:07:24;16.83;;;8.47;;
18933;SDS011;9599;53.706;10.384;2023-03-09T05:09:53;16.07;;;8.10;;
18933;SDS011;9599;53.706;10.384;2023-03-09T05:12:21;14.83;;;8.03;;
18933;SDS011;9599;53.706;10.384;2023-03-09T05:14:50;17.63;;;8.83;;
18933;SDS011;9599;53.706;10.384;2023-03-09T05:17:19;14.90;;;8.13;;
18933;SDS011;9599;53.706;10.384;2023-03-09T05:19:48;14.13;;;8.20;;
18933;SDS011;9599;53.706;10.384;2023-03-09T05:22:16;15.17;;;8.17;;
18933;SDS011;9599;53.706;10.384;2023-03-09T05:24:44;15.70;;;8.20;;
18933;SDS011;9599;53.706;10.384;2023-03-09T05:27:12;16.30;;;8.23;;
18933;SDS011;9599;53.706;10.384;2023-03-09T05:29:41;13.80;;;7.97;;
18933;SDS011;9599;53.706;10.384;2023-03-09T05:32:11;17.10;;;8.60;;
18933;SDS011;9599;53.706;10.384;2023-03-09T05:34:40;13.87;;;7.93;;
18933;SDS011;9599;53.706;10.384;2023-03-09T05:37:08;16.40;;;8.90;;
18933;SDS011;9599;53.706;10.384;2023-03-09T05:39:36;16.37;;;8.67;;
18933;SDS011;9599;53.706;10.384;2023-03-09T05:42:04;17.37;;;8.30;;
18933;SDS011;9599;53.706;10.384;2023-03-09T05:44:34;14.87;;;7.97;;
18933;SDS011;9599;53.706;10.384;2023-03-09T05:47:03;17.17;;;8.53;;
18933;SDS011;9599;53.706;10.384;2023-03-09T05:49:32;15.30;;;8.10;;
18933;SDS011;9599;53.706;10.384;2023-03-09T05:52:00;15.33;;;7.43;;
18933;SDS011;9599;53.706;10.384;2023-03-09T05:54:30;14.67;;;8.13;;
18933;SDS011;9599;53.706;10.384;2023-03-09T05:57:04;15.47;;;7.90;;
18933;SDS011;9599;53.706;10.384;2023-03-09T05:59:32;15.77;;;7.90;;
18933;SDS011;9599;53.706;10.384;2023-03-09T06:02:00;14.17;;;7.90;;
18933;SDS011;9599;53.706;10.384;2023-03-09T06:04:29;18.17;;;8.60;;
18933;SDS011;9599;53.706;10.384;2023-03-09T06:07:03;15.93;;;8.50;;
18933;SDS011;9599;53.706;10.384;2023-03-09T06:09:38;17.97;;;8.53;;
18933;SDS011;9599;53.706;10.384;2023-03-09T06:12:11;16.13;;;8.47;;
18933;SDS011;9599;53.706;10.384;2023-03-09T06:14:40;17.83;;;8.50;;
18933;SDS011;9599;53.706;10.384;2023-03-09T06:17:09;16.40;;;7.77;;
18933;SDS011;9599;53.706;10.384;2023-03-09T06:19:38;15.57;;;8.63;;
18933;SDS011;9599;53.706;10.384;2023-03-09T06:22:08;17.30;;;8.40;;
18933;SDS011;9599;53.706;10.384;2023-03-09T06:24:39;17.30;;;8.50;;
18933;SDS011;9599;53.706;10.384;2023-03-09T06:27:10;14.97;;;7.80;;
18933;SDS011;9599;53.706;10.384;2023-03-09T06:29:38;15.60;;;8.40;;
18933;SDS011;9599;53.706;10.384;2023-03-09T06:32:06;18.47;;;9.13;;
18933;SDS011;9599;53.706;10.384;2023-03-09T06:34:36;16.67;;;9.00;;
18933;SDS011;9599;53.706;10.384;2023-03-09T06:37:09;16.30;;;8.60;;
18933;SDS011;9599;53.706;10.384;2023-03-09T06:39:37;18.27;;;9.07;;
18933;SDS011;9599;53.706;10.384;2023-03-09T06:42:06;15.30;;;8.60;;
18933;SDS011;9599;53.706;10.384;2023-03-09T06:44:39;16.97;;;8.87;;
18933;SDS011;9599;53.706;10.384;2023-03-09T06:47:09;18.10;;;9.13;;
18933;SDS011;9599;53.706;10.384;2023-03-09T06:49:38;14.47;;;8.23;;
18933;SDS011;9599;53.706;10.384;2023-03-09T06:52:15;18.67;;;9.13;;
18933;SDS011;9599;53.706;10.384;2023-03-09T06:54:44;15.30;;;8.23;;
18933;SDS011;9599;53.706;10.384;2023-03-09T06:57:15;15.37;;;8.50;;
18933;SDS011;9599;53.706;10.384;2023-03-09T06:59:43;16.33;;;9.30;;
18933;SDS011;9599;53.706;10.384;2023-03-09T07:02:11;16.30;;;8.70;;
18933;SDS011;9599;53.706;10.384;2023-03-09T07:04:40;20.03;;;9.10;;
18933;SDS011;9599;53.706;10.384;2023-03-09T07:07:08;17.60;;;9.07;;
18933;SDS011;9599;53.706;10.384;2023-03-09T07:09:38;17.23;;;8.77;;
18933;SDS011;9599;53.706;10.384;2023-03-09T07:12:06;16.73;;;9.07;;
18933;SDS011;9599;53.706;10.384;2023-03-09T07:14:34;21.23;;;10.80;;
18933;SDS011;9599;53.706;10.384;2023-03-09T07:17:02;16.73;;;9.33;;
18933;SDS011;9599;53.706;10.384;2023-03-09T07:19:30;19.00;;;8.70;;
18933;SDS011;9599;53.706;10.384;2023-03-09T07:21:58;20.10;;;9.97;;
18933;SDS011;9599;53.706;10.384;2023-03-09T07:24:26;16.40;;;8.73;;
18933;SDS011;9599;53.706;10.384;2023-03-09T07:26:55;16.03;;;8.53;;
18933;SDS011;9599;53.706;10.384;2023-03-09T07:29:23;17.37;;;8.40;;
18933;SDS011;9599;53.706;10.384;2023-03-09T07:31:51;16.97;;;8.80;;
18933;SDS011;9599;53.706;10.384;2023-03-09T07:34:19;14.40;;;7.83;;
18933;SDS011;9599;53.706;10.384;2023-03-09T07:36:48;20.70;;;9.83;;
18933;SDS011;9599;53.706;10.384;2023-03-09T07:39:16;17.07;;;8.90;;
18933;SDS011;9599;53.706;10.384;2023-03-09T07:41:43;14.53;;;8.50;;
18933;SDS011;9599;53.706;10.384;2023-03-09T07:44:13;23.17;;;10.57;;
18933;SDS011;9599;53.706;10.384;2023-03-09T07:46:40;20.20;;;10.27;;
18933;SDS011;9599;53.706;10.384;2023-03-09T07:49:08;13.30;;;7.43;;
18933;SDS011;9599;53.706;10.384;2023-03-09T07:51:36;14.70;;;8.43;;
18933;SDS011;9599;53.706;10.384;2023-03-09T07:54:04;15.23;;;8.63;;
18933;SDS011;9599;53.706;10.384;2023-03-09T07:56:33;14.67;;;8.80;;
18933;SDS011;9599;53.706;10.384;2023-03-09T07:59:01;13.53;;;8.57;;
18933;SDS011;9599;53.706;10.384;2023-03-09T08:01:31;15.70;;;8.93;;
18933;SDS011;9599;53.706;10.384;2023-03-09T08:03:59;18.37;;;9.73;;
18933;SDS011;9599;53.706;10.384;2023-03-09T08:06:27;14.37;;;8.87;;
18933;SDS011;9599;53.706;10.384;2023-03-09T08:08:56;13.73;;;8.00;;
18933;SDS011;9599;53.706;10.384;2023-03-09T08:11:24;15.40;;;8.50;;
18933;SDS011;9599;53.706;10.384;2023-03-09T08:13:52;14.73;;;7.93;;
18933;SDS011;9599;53.706;10.384;2023-03-09T08:16:20;19.17;;;9.23;;
18933;SDS011;9599;53.706;10.384;2023-03-09T08:18:49;15.17;;;8.50;;
18933;SDS011;9599;53.706;10.384;2023-03-09T08:21:17;12.97;;;7.77;;
18933;SDS011;9599;53.706;10.384;2023-03-09T08:23:46;18.10;;;9.27;;
18933;SDS011;9599;53.706;10.384;2023-03-09T08:26:14;14.50;;;7.77;;
18933;SDS011;9599;53.706;10.384;2023-03-09T08:28:44;17.83;;;8.93;;
18933;SDS011;9599;53.706;10.384;2023-03-09T08:31:13;14.57;;;8.80;;
18933;SDS011;9599;53.706;10.384;2023-03-09T08:33:43;17.13;;;8.63;;
18933;SDS011;9599;53.706;10.384;2023-03-09T08:36:14;15.77;;;8.90;;
18933;SDS011;9599;53.706;10.384;2023-03-09T08:38:43;14.97;;;8.97;;
18933;SDS011;9599;53.706;10.384;2023-03-09T08:41:13;15.33;;;9.50;;
18933;SDS011;9599;53.706;10.384;2023-03-09T08:43:41;15.57;;;8.60;;
18933;SDS011;9599;53.706;10.384;2023-03-09T08:46:09;16.80;;;9.33;;
18933;SDS011;9599;53.706;10.384;2023-03-09T08:48:38;15.87;;;9.17;;
18933;SDS011;9599;53.706;10.384;2023-03-09T08:51:08;13.87;;;8.93;;
18933;SDS011;9599;53.706;10.384;2023-03-09T08:53:38;19.87;;;9.83;;
18933;SDS011;9599;53.706;10.384;2023-03-09T08:56:07;17.63;;;9.90;;
18933;SDS011;9599;53.706;10.384;2023-03-09T08:58:37;16.70;;;9.97;;
18933;SDS011;9599;53.706;10.384;2023-03-09T09:01:06;15.67;;;9.47;;
18933;SDS011;9599;53.706;10.384;2023-03-09T09:03:35;17.50;;;9.23;;
18933;SDS011;9599;53.706;10.384;2023-03-09T09:06:05;15.60;;;10.10;;
18933;SDS011;9599;53.706;10.384;2023-03-09T09:08:34;15.37;;;9.00;;
18933;SDS011;9599;53.706;10.384;2023-03-09T09:11:07;15.83;;;9.10;;
18933;SDS011;9599;53.706;10.384;2023-03-09T09:13:36;14.80;;;9.20;;
18933;SDS011;9599;53.706;10.384;2023-03-09T09:16:04;13.70;;;7.87;;
18933;SDS011;9599;53.706;10.384;2023-03-09T09:18:33;16.43;;;8.90;;
18933;SDS011;9599;53.706;10.384;2023-03-09T09:21:08;14.53;;;8.90;;
18933;SDS011;9599;53.706;10.384;2023-03-09T09:23:37;15.80;;;8.57;;
18933;SDS011;9599;53.706;10.384;2023-03-09T09:26:08;17.33;;;9.50;;
18933;SDS011;9599;53.706;10.384;2023-03-09T09:28:37;14.13;;;8.53;;
18933;SDS011;9599;53.706;10.384;2023-03-09T09:31:06;11.73;;;7.47;;
18933;SDS011;9599;53.706;10.384;2023-03-09T09:33:36;14.57;;;7.90;;
18933;SDS011;9599;53.706;10.384;2023-03-09T09:36:04;13.30;;;7.97;;
18933;SDS011;9599;53.706;10.384;2023-03-09T09:38:35;13.67;;;8.27;;
18933;SDS011;9599;53.706;10.384;2023-03-09T09:41:04;12.70;;;7.70;;
18933;SDS011;9599;53.706;10.384;2023-03-09T09:43:39;15.50;;;9.03;;
18933;SDS011;9599;53.706;10.384;2023-03-09T09:46:09;14.60;;;7.93;;
18933;SDS011;9599;53.706;10.384;2023-03-09T09:48:40;15.50;;;8.57;;
18933;SDS011;9599;53.706;10.384;2023-03-09T09:51:13;12.93;;;7.40;;
18933;SDS011;9599;53.706;10.384;2023-03-09T09:53:53;11.20;;;6.17;;
18933;SDS011;9599;53.706;10.384;2023-03-09T09:56:36;14.53;;;8.20;;
18933;SDS011;9599;53.706;10.384;2023-03-09T09:59:13;13.10;;;8.33;;
18933;SDS011;9599;53.706;10.384;2023-03-09T10:01:56;14.27;;;8.33;;
18933;SDS011;9599;53.706;10.384;2023-03-09T10:04:30;12.63;;;7.67;;
18933;SDS011;9599;53.706;10.384;2023-03-09T10:07:03;13.30;;;8.43;;
18933;SDS011;9599;53.706;10.384;2023-03-09T10:09:39;13.80;;;8.53;;
18933;SDS011;9599;53.706;10.384;2023-03-09T10:12:20;13.80;;;8.80;;
18933;SDS011;9599;53.706;10.384;2023-03-09T10:14:50;12.00;;;7.77;;
18933;SDS011;9599;53.706;10.384;2023-03-09T10:17:22;11.07;;;8.00;;
18933;SDS011;9599;53.706;10.384;2023-03-09T10:19:56;12.30;;;7.50;;
18933;SDS011;9599;53.706;10.384;2023-03-09T10:22:29;12.27;;;8.67;;
18933;SDS011;9599;53.706;10.384;2023-03-09T10:24:57;12.53;;;8.30;;
18933;SDS011;9599;53.706;10.384;2023-03-09T10:27:29;14.73;;;8.50;;
18933;SDS011;9599;53.706;10.384;2023-03-09T10:30:04;13.07;;;8.87;;
18933;SDS011;9599;53.706;10.384;2023-03-09T10:32:42;13.27;;;8.43;;
18933;SDS011;9599;53.706;10.384;2023-03-09T10:35:18;14.27;;;8.63;;
18933;SDS011;9599;53.706;10.384;2023-03-09T10:37:49;11.40;;;7.93;;
18933;SDS011;9599;53.706;10.384;2023-03-09T10:40:19;13.70;;;8.13;;
18933;SDS011;9599;53.706;10.384;2023-03-09T10:42:50;12.67;;;8.07;;
18933;SDS011;9599;53.706;10.384;2023-03-09T10:45:21;14.20;;;8.50;;
18933;SDS011;9599;53.706;10.384;2023-03-09T10:47:52;12.90;;;8.33;;
18933;SDS011;9599;53.706;10.384;2023-03-09T10:50:25;11.70;;;8.23;;
18933;SDS011;9599;53.706;10.384;2023-03-09T10:52:55;12.27;;;8.40;;
18933;SDS011;9599;53.706;10.384;2023-03-09T10:55:29;13.27;;;8.87;;
18933;SDS011;9599;53.706;10.384;2023-03-09T10:58:13;11.80;;;8.07;;
18933;SDS011;9599;53.706;10.384;2023-03-09T11:00:57;11.30;;;7.60;;
18933;SDS011;9599;53.706;10.384;2023-03-09T11:03:33;11.80;;;8.30;;
18933;SDS011;9599;53.706;10.384;2023-03-09T11:06:22;13.03;;;8.60;;
18933;SDS011;9599;53.706;10.384;2023-03-09T11:09:11;12.53;;;8.77;;
18933;SDS011;9599;53.706;10.384;2023-03-09T11:11:43;12.83;;;8.33;;
18933;SDS011;9599;53.706;10.384;2023-03-09T11:14:24;10.83;;;8.23;;
18933;SDS011;9599;53.706;10.384;2023-03-09T11:16:56;11.67;;;8.07;;
18933;SDS011;9599;53.706;10.384;2023-03-09T11:19:26;11.50;;;8.13;;
18933;SDS011;9599;53.706;10.384;2023-03-09T11:22:00;11.90;;;8.17;;
18933;SDS011;9599;53.706;10.384;2023-03-09T11:24:34;10.93;;;7.47;;
18933;SDS011;9599;53.706;10.384;2023-03-09T11:27:05;9.43;;;6.20;;
18933;SDS011;9599;53.706;10.384;2023-03-09T11:29:42;8.67;;;6.23;;
18933;SDS011;9599;53.706;10.384;2023-03-09T11:32:17;7.93;;;4.50;;
18933;SDS011;9599;53.706;10.384;2023-03-09T11:34:45;11.60;;;7.47;;
18933;SDS011;9599;53.706;10.384;2023-03-09T11:37:16;10.37;;;6.47;;
18933;SDS011;9599;53.706;10.384;2023-03-09T11:39:47;9.50;;;6.13;;
18933;SDS011;9599;53.706;10.384;2023-03-09T11:42:21;7.80;;;5.57;;
18933;SDS011;9599;53.706;10.384;2023-03-09T11:44:58;8.57;;;5.50;;
18933;SDS011;9599;53.706;10.384;2023-03-09T11:47:28;7.97;;;5.50;;
18933;SDS011;9599;53.706;10.384;2023-03-09T11:50:02;9.33;;;6.23;;
18933;SDS011;9599;53.706;10.384;2023-03-09T11:52:39;9.90;;;5.50;;
18933;SDS011;9599;53.706;10.384;2023-03-09T11:55:14;7.30;;;5.50;;
18933;SDS011;9599;53.706;10.384;2023-03-09T11:57:46;4.73;;;3.53;;
18933;SDS011;9599;53.706;10.384;2023-03-09T12:00:19;7.70;;;5.47;;
18933;SDS011;9599;53.706;10.384;2023-03-09T12:02:53;6.73;;;4.83;;
18933;SDS011;9599;53.706;10.384;2023-03-09T12:05:26;8.07;;;5.23;;
18933;SDS011;9599;53.706;10.384;2023-03-09T12:07:57;7.30;;;4.83;;
18933;SDS011;9599;53.706;10.384;2023-03-09T12:10:29;8.13;;;4.33;;
18933;SDS011;9599;53.706;10.384;2023-03-09T12:13:02;7.87;;;4.93;;
18933;SDS011;9599;53.706;10.384;2023-03-09T12:15:37;6.63;;;3.50;;
18933;SDS011;9599;53.706;10.384;2023-03-09T12:18:16;6.90;;;4.10;;
18933;SDS011;9599;53.706;10.384;2023-03-09T12:20:48;6.27;;;4.17;;
18933;SDS011;9599;53.706;10.384;2023-03-09T12:26:20;5.90;;;3.80;;
18933;SDS011;9599;53.706;10.384;2023-03-09T12:29:00;7.13;;;4.63;;
18933;SDS011;9599;53.706;10.384;2023-03-09T12:31:35;6.60;;;4.40;;
18933;SDS011;9599;53.706;10.384;2023-03-09T12:34:06;6.93;;;4.50;;
18933;SDS011;9599;53.706;10.384;2023-03-09T12:36:50;7.20;;;4.27;;
18933;SDS011;9599;53.706;10.384;2023-03-09T12:39:31;8.40;;;4.57;;
18933;SDS011;9599;53.706;10.384;2023-03-09T12:42:26;7.43;;;4.50;;
18933;SDS011;9599;53.706;10.384;2023-03-09T12:45:03;8.97;;;4.50;;
18933;SDS011;9599;53.706;10.384;2023-03-09T12:47:48;5.33;;;4.07;;
18933;SDS011;9599;53.706;10.384;2023-03-09T12:50:22;7.13;;;4.33;;
18933;SDS011;9599;53.706;10.384;2023-03-09T12:52:55;5.93;;;3.90;;
18933;SDS011;9599;53.706;10.384;2023-03-09T12:55:41;6.17;;;4.03;;
18933;SDS011;9599;53.706;10.384;2023-03-09T13:01:03;11.10;;;5.20;;
18933;SDS011;9599;53.706;10.384;2023-03-09T13:03:37;10.43;;;5.50;;
18933;SDS011;9599;53.706;10.384;2023-03-09T13:06:26;7.30;;;4.53;;
18933;SDS011;9599;53.706;10.384;2023-03-09T13:08:59;6.63;;;4.50;;
18933;SDS011;9599;53.706;10.384;2023-03-09T13:11:32;6.57;;;4.47;;
18933;SDS011;9599;53.706;10.384;2023-03-09T13:14:02;6.47;;;4.20;;
18933;SDS011;9599;53.706;10.384;2023-03-09T13:22:23;6.60;;;4.40;;
18933;SDS011;9599;53.706;10.384;2023-03-09T13:28:03;8.93;;;5.47;;
18933;SDS011;9599;53.706;10.384;2023-03-09T13:30:44;5.17;;;3.80;;
18933;SDS011;9599;53.706;10.384;2023-03-09T13:33:17;7.20;;;4.53;;
18933;SDS011;9599;53.706;10.384;2023-03-09T13:35:49;10.30;;;5.70;;
18933;SDS011;9599;53.706;10.384;2023-03-09T13:38:23;7.43;;;4.30;;
18933;SDS011;9599;53.706;10.384;2023-03-09T13:40:55;7.07;;;4.30;;
18933;SDS011;9599;53.706;10.384;2023-03-09T13:43:27;6.97;;;4.83;;
18933;SDS011;9599;53.706;10.384;2023-03-09T13:46:04;6.10;;;5.03;;
18933;SDS011;9599;53.706;10.384;2023-03-09T13:48:35;8.70;;;4.87;;
18933;SDS011;9599;53.706;10.384;2023-03-09T13:51:23;7.03;;;4.70;;
18933;SDS011;9599;53.706;10.384;2023-03-09T13:53:59;7.77;;;4.67;;
18933;SDS011;9599;53.706;10.384;2023-03-09T13:56:26;6.50;;;4.10;;
18933;SDS011;9599;53.706;10.384;2023-03-09T13:58:55;5.67;;;4.13;;
18933;SDS011;9599;53.706;10.384;2023-03-09T14:01:24;6.10;;;4.50;;
18933;SDS011;9599;53.706;10.384;2023-03-09T14:03:55;7.63;;;5.13;;
18933;SDS011;9599;53.706;10.384;2023-03-09T14:06:30;8.40;;;5.27;;
18933;SDS011;9599;53.706;10.384;2023-03-09T14:09:22;9.57;;;5.30;;
18933;SDS011;9599;53.706;10.384;2023-03-09T14:11:56;7.23;;;4.77;;
18933;SDS011;9599;53.706;10.384;2023-03-09T14:14:24;7.63;;;5.23;;
18933;SDS011;9599;53.706;10.384;2023-03-09T14:16:53;10.50;;;6.20;;
18933;SDS011;9599;53.706;10.384;2023-03-09T14:19:23;6.33;;;4.50;;
18933;SDS011;9599;53.706;10.384;2023-03-09T14:21:55;6.47;;;4.40;;
18933;SDS011;9599;53.706;10.384;2023-03-09T14:24:25;6.60;;;4.40;;
18933;SDS011;9599;53.706;10.384;2023-03-09T14:27:10;6.87;;;4.33;;
18933;SDS011;9599;53.706;10.384;2023-03-09T14:29:39;5.10;;;4.20;;
18933;SDS011;9599;53.706;10.384;2023-03-09T14:32:18;6.83;;;4.93;;
18933;SDS011;9599;53.706;10.384;2023-03-09T14:34:48;7.37;;;5.00;;
18933;SDS011;9599;53.706;10.384;2023-03-09T14:37:20;6.30;;;4.40;;
18933;SDS011;9599;53.706;10.384;2023-03-09T14:39:51;6.13;;;4.50;;
18933;SDS011;9599;53.706;10.384;2023-03-09T14:42:25;6.87;;;4.63;;
18933;SDS011;9599;53.706;10.384;2023-03-09T14:45:00;8.00;;;5.40;;
18933;SDS011;9599;53.706;10.384;2023-03-09T14:47:34;8.23;;;5.80;;
18933;SDS011;9599;53.706;10.384;2023-03-09T14:50:04;7.97;;;5.67;;
18933;SDS011;9599;53.706;10.384;2023-03-09T14:52:34;7.97;;;5.63;;
18933;SDS011;9599;53.706;10.384;2023-03-09T14:55:05;9.00;;;6.27;;
18933;SDS011;9599;53.706;10.384;2023-03-09T14:57:39;10.03;;;6.40;;
18933;SDS011;9599;53.706;10.384;2023-03-09T15:00:12;9.37;;;6.33;;
18933;SDS011;9599;53.706;10.384;2023-03-09T15:02:42;9.20;;;6.10;;
18933;SDS011;9599;53.706;10.384;2023-03-09T15:05:12;8.43;;;6.10;;
18933;SDS011;9599;53.706;10.384;2023-03-09T15:07:43;11.00;;;6.83;;
18933;SDS011;9599;53.706;10.384;2023-03-09T15:10:11;9.00;;;6.20;;
18933;SDS011;9599;53.706;10.384;2023-03-09T15:12:39;9.50;;;6.67;;
18933;SDS011;9599;53.706;10.384;2023-03-09T15:15:13;9.40;;;6.30;;
18933;SDS011;9599;53.706;10.384;2023-03-09T15:17:43;8.93;;;6.20;;
18933;SDS011;9599;53.706;10.384;2023-03-09T15:20:12;11.10;;;6.80;;